createdAt,value
2023-01-27T00:49:59.491Z,62
2023-01-27T01:09:59.818Z,61
2023-01-27T02:30:03.561Z,62
2023-01-27T02:50:04.827Z,62
2023-01-27T03:00:04.914Z,63
2023-01-27T03:20:05.669Z,64
2023-01-27T03:30:06.499Z,64
2023-01-27T03:40:06.753Z,64
2023-01-27T03:50:06.852Z,65
2023-01-27T04:00:07.388Z,65
2023-01-27T04:10:07.879Z,66
2023-01-27T04:20:07.968Z,66
2023-01-27T04:50:09.837Z,65
2023-01-27T05:00:10.247Z,65
2023-01-27T05:50:13.251Z,64
2023-01-27T06:00:13.536Z,63
2023-01-27T06:10:14.156Z,63
2023-01-27T06:20:14.395Z,63
2023-01-27T06:30:15.114Z,63
2023-01-27T06:40:15.860Z,62
2023-01-27T06:50:16.697Z,62
2023-01-27T07:00:17.224Z,63
2023-01-27T07:10:17.519Z,63
2023-01-27T07:20:18.063Z,63
2023-01-27T07:30:18.859Z,64
2023-01-27T07:40:19.105Z,64
2023-01-27T08:00:20.425Z,64
2023-01-27T08:10:21.347Z,63
2023-01-27T08:20:21.774Z,63
2023-01-27T08:30:22.761Z,63
2023-01-27T08:40:23.695Z,62
2023-01-27T08:50:24.550Z,62
2023-01-27T09:10:26.120Z,62
2023-01-27T09:40:27.568Z,62
2023-01-27T10:00:29.231Z,62
2023-01-27T10:20:52.450Z,63
2023-01-27T10:40:37.007Z,62
2023-01-27T13:30:46.328Z,68
2023-01-27T14:00:47.866Z,66
2023-01-27T14:10:48.540Z,66
2023-01-27T14:20:48.798Z,67
2023-01-27T14:50:49.834Z,69
2023-01-27T15:00:50.587Z,68
2023-01-27T15:10:51.548Z,68
2023-01-27T15:20:51.967Z,68
2023-01-27T15:30:52.785Z,68
2023-01-27T15:40:53.097Z,68
2023-01-27T16:00:54.152Z,68
2023-01-27T16:20:55.087Z,67
2023-01-27T16:40:56.280Z,66
2023-01-27T16:50:56.441Z,65
2023-01-27T17:00:56.637Z,66
2023-01-27T17:20:56.955Z,67
2023-01-27T17:30:57.961Z,67
2023-01-27T17:40:58.823Z,67
2023-01-27T17:50:59.370Z,67
2023-01-27T18:01:00.324Z,68
2023-01-27T18:11:00.600Z,67
2023-01-27T18:21:01.272Z,68
2023-01-27T18:31:01.778Z,67
2023-01-27T18:41:01.749Z,68
2023-01-27T18:51:02.229Z,68
2023-01-27T19:01:03.227Z,69
2023-01-27T19:21:04.182Z,70
2023-01-27T19:31:04.585Z,70
2023-01-27T19:41:05.343Z,70
2023-01-27T19:51:06.293Z,70
2023-01-27T20:01:06.821Z,70
2023-01-27T20:11:07.425Z,69
2023-01-27T20:21:08.303Z,69
2023-01-27T20:31:08.626Z,68
2023-01-27T20:41:09.498Z,67
2023-01-27T20:51:09.749Z,67
2023-01-27T21:01:10.515Z,67
2023-01-27T21:11:10.603Z,67
2023-01-27T21:21:11.555Z,68
2023-01-27T21:31:12.125Z,69
2023-01-27T21:41:12.559Z,71
2023-01-27T21:51:13.392Z,71
2023-01-27T22:01:13.823Z,70
2023-01-27T22:11:14.399Z,71
2023-01-27T22:51:16.400Z,72
2023-01-27T23:21:18.012Z,72
2023-01-27T23:31:18.893Z,72
2023-01-27T23:51:20.327Z,72
